sensor_id;sensor_type;location;lat;lon;timestamp;P1;durP1;ratioP1;P2;durP2;ratioP2
13580;SDS011;6861;46.170;7.222;2023-08-06T00:00:46;1.98;;;1.10;;
13580;SDS011;6861;46.170;7.222;2023-08-06T00:03:14;1.45;;;1.17;;
13580;SDS011;6861;46.170;7.222;2023-08-06T00:05:42;2.22;;;1.35;;
13580;SDS011;6861;46.170;7.222;2023-08-06T00:08:10;1.40;;;1.27;;
13580;SDS011;6861;46.170;7.222;2023-08-06T00:10:39;1.73;;;1.40;;
13580;SDS011;6861;46.170;7.222;2023-08-06T00:13:08;2.00;;;1.38;;
13580;SDS011;6861;46.170;7.222;2023-08-06T00:15:37;1.90;;;1.50;;
13580;SDS011;6861;46.170;7.222;2023-08-06T00:18:05;2.33;;;1.30;;
13580;SDS011;6861;46.170;7.222;2023-08-06T00:20:34;2.53;;;1.27;;
13580;SDS011;6861;46.170;7.222;2023-08-06T00:23:02;1.67;;;1.33;;
13580;SDS011;6861;46.170;7.222;2023-08-06T00:25:30;1.40;;;1.20;;
13580;SDS011;6861;46.170;7.222;2023-08-06T00:27:58;1.70;;;1.20;;
13580;SDS011;6861;46.170;7.222;2023-08-06T00:30:26;1.92;;;1.23;;
13580;SDS011;6861;46.170;7.222;2023-08-06T00:32:56;1.45;;;1.20;;
13580;SDS011;6861;46.170;7.222;2023-08-06T00:35:24;1.45;;;1.27;;
13580;SDS011;6861;46.170;7.222;2023-08-06T00:37:52;2.03;;;1.40;;
13580;SDS011;6861;46.170;7.222;2023-08-06T00:40:20;2.13;;;1.50;;
13580;SDS011;6861;46.170;7.222;2023-08-06T00:42:49;1.45;;;1.30;;
13580;SDS011;6861;46.170;7.222;2023-08-06T00:45:17;1.60;;;1.48;;
13580;SDS011;6861;46.170;7.222;2023-08-06T00:47:45;2.65;;;1.20;;
13580;SDS011;6861;46.170;7.222;2023-08-06T00:50:16;3.20;;;1.52;;
13580;SDS011;6861;46.170;7.222;2023-08-06T00:52:45;2.28;;;1.40;;
13580;SDS011;6861;46.170;7.222;2023-08-06T00:55:13;1.77;;;1.30;;
13580;SDS011;6861;46.170;7.222;2023-08-06T00:57:41;2.88;;;1.40;;
13580;SDS011;6861;46.170;7.222;2023-08-06T01:00:10;1.90;;;1.50;;
13580;SDS011;6861;46.170;7.222;2023-08-06T01:02:39;2.58;;;1.30;;
13580;SDS011;6861;46.170;7.222;2023-08-06T01:05:07;2.75;;;1.30;;
13580;SDS011;6861;46.170;7.222;2023-08-06T01:07:47;1.65;;;1.30;;
13580;SDS011;6861;46.170;7.222;2023-08-06T01:10:26;3.97;;;1.48;;
13580;SDS011;6861;46.170;7.222;2023-08-06T01:13:08;1.88;;;1.25;;
13580;SDS011;6861;46.170;7.222;2023-08-06T01:15:46;1.90;;;1.30;;
13580;SDS011;6861;46.170;7.222;2023-08-06T01:18:14;2.33;;;1.52;;
13580;SDS011;6861;46.170;7.222;2023-08-06T01:20:45;1.80;;;1.38;;
13580;SDS011;6861;46.170;7.222;2023-08-06T01:23:13;2.83;;;1.30;;
13580;SDS011;6861;46.170;7.222;2023-08-06T01:25:42;1.92;;;1.20;;
13580;SDS011;6861;46.170;7.222;2023-08-06T01:28:22;2.17;;;1.20;;
13580;SDS011;6861;46.170;7.222;2023-08-06T01:30:57;2.83;;;1.33;;
13580;SDS011;6861;46.170;7.222;2023-08-06T01:33:29;1.42;;;1.23;;
13580;SDS011;6861;46.170;7.222;2023-08-06T01:36:03;1.77;;;1.10;;
13580;SDS011;6861;46.170;7.222;2023-08-06T01:38:33;1.30;;;1.20;;
13580;SDS011;6861;46.170;7.222;2023-08-06T01:41:01;1.38;;;1.00;;
13580;SDS011;6861;46.170;7.222;2023-08-06T01:43:30;1.70;;;1.10;;
13580;SDS011;6861;46.170;7.222;2023-08-06T01:45:58;2.47;;;1.30;;
13580;SDS011;6861;46.170;7.222;2023-08-06T01:48:26;1.30;;;1.20;;
13580;SDS011;6861;46.170;7.222;2023-08-06T01:50:54;1.95;;;1.20;;
13580;SDS011;6861;46.170;7.222;2023-08-06T01:53:24;1.77;;;1.27;;
13580;SDS011;6861;46.170;7.222;2023-08-06T01:55:52;1.40;;;1.00;;
13580;SDS011;6861;46.170;7.222;2023-08-06T01:58:20;1.38;;;1.20;;
13580;SDS011;6861;46.170;7.222;2023-08-06T02:00:48;1.83;;;1.38;;
13580;SDS011;6861;46.170;7.222;2023-08-06T02:03:16;1.17;;;1.05;;
13580;SDS011;6861;46.170;7.222;2023-08-06T02:05:45;2.10;;;1.20;;
13580;SDS011;6861;46.170;7.222;2023-08-06T02:08:13;1.73;;;1.23;;
13580;SDS011;6861;46.170;7.222;2023-08-06T02:10:42;2.33;;;1.30;;
13580;SDS011;6861;46.170;7.222;2023-08-06T02:13:12;1.67;;;1.52;;
13580;SDS011;6861;46.170;7.222;2023-08-06T02:15:42;2.20;;;1.17;;
13580;SDS011;6861;46.170;7.222;2023-08-06T02:18:11;2.67;;;1.45;;
13580;SDS011;6861;46.170;7.222;2023-08-06T02:20:39;1.35;;;1.20;;
13580;SDS011;6861;46.170;7.222;2023-08-06T02:23:07;1.50;;;1.25;;
13580;SDS011;6861;46.170;7.222;2023-08-06T02:25:35;1.15;;;1.00;;
13580;SDS011;6861;46.170;7.222;2023-08-06T02:28:05;1.85;;;1.30;;
13580;SDS011;6861;46.170;7.222;2023-08-06T02:30:33;1.48;;;1.30;;
13580;SDS011;6861;46.170;7.222;2023-08-06T02:33:01;1.42;;;1.15;;
13580;SDS011;6861;46.170;7.222;2023-08-06T02:35:29;1.40;;;1.13;;
13580;SDS011;6861;46.170;7.222;2023-08-06T02:37:57;1.42;;;1.00;;
13580;SDS011;6861;46.170;7.222;2023-08-06T02:40:25;1.95;;;1.15;;
13580;SDS011;6861;46.170;7.222;2023-08-06T02:42:54;1.33;;;1.10;;
13580;SDS011;6861;46.170;7.222;2023-08-06T02:45:23;1.45;;;1.02;;
13580;SDS011;6861;46.170;7.222;2023-08-06T02:47:51;1.20;;;1.10;;
13580;SDS011;6861;46.170;7.222;2023-08-06T02:50:19;1.58;;;1.20;;
13580;SDS011;6861;46.170;7.222;2023-08-06T02:52:48;1.45;;;1.27;;
13580;SDS011;6861;46.170;7.222;2023-08-06T02:55:17;1.98;;;1.30;;
13580;SDS011;6861;46.170;7.222;2023-08-06T02:57:45;1.52;;;1.20;;
13580;SDS011;6861;46.170;7.222;2023-08-06T03:00:13;2.65;;;1.40;;
13580;SDS011;6861;46.170;7.222;2023-08-06T03:02:43;1.30;;;1.02;;
13580;SDS011;6861;46.170;7.222;2023-08-06T03:05:11;4.15;;;1.10;;
13580;SDS011;6861;46.170;7.222;2023-08-06T03:07:40;2.63;;;1.02;;
13580;SDS011;6861;46.170;7.222;2023-08-06T03:10:08;1.88;;;0.85;;
13580;SDS011;6861;46.170;7.222;2023-08-06T03:12:37;0.88;;;0.75;;
13580;SDS011;6861;46.170;7.222;2023-08-06T03:15:05;2.88;;;1.00;;
13580;SDS011;6861;46.170;7.222;2023-08-06T03:17:34;1.20;;;0.80;;
13580;SDS011;6861;46.170;7.222;2023-08-06T03:20:05;1.13;;;0.82;;
13580;SDS011;6861;46.170;7.222;2023-08-06T03:22:34;1.10;;;0.73;;
13580;SDS011;6861;46.170;7.222;2023-08-06T03:25:02;1.13;;;0.70;;
13580;SDS011;6861;46.170;7.222;2023-08-06T03:27:31;0.68;;;0.60;;
13580;SDS011;6861;46.170;7.222;2023-08-06T03:29:59;1.15;;;0.88;;
13580;SDS011;6861;46.170;7.222;2023-08-06T03:32:27;1.73;;;0.88;;
13580;SDS011;6861;46.170;7.222;2023-08-06T03:34:55;0.80;;;0.77;;
13580;SDS011;6861;46.170;7.222;2023-08-06T03:37:25;1.90;;;1.00;;
13580;SDS011;6861;46.170;7.222;2023-08-06T03:39:53;2.28;;;1.00;;
13580;SDS011;6861;46.170;7.222;2023-08-06T03:42:21;1.00;;;0.80;;
13580;SDS011;6861;46.170;7.222;2023-08-06T03:44:49;2.88;;;0.82;;
13580;SDS011;6861;46.170;7.222;2023-08-06T03:47:17;1.88;;;1.08;;
13580;SDS011;6861;46.170;7.222;2023-08-06T03:49:46;1.23;;;0.85;;
13580;SDS011;6861;46.170;7.222;2023-08-06T03:52:15;1.20;;;1.00;;
13580;SDS011;6861;46.170;7.222;2023-08-06T03:54:45;1.50;;;1.08;;
13580;SDS011;6861;46.170;7.222;2023-08-06T03:57:13;1.30;;;0.90;;
13580;SDS011;6861;46.170;7.222;2023-08-06T03:59:41;1.80;;;0.88;;
13580;SDS011;6861;46.170;7.222;2023-08-06T04:02:19;1.15;;;0.95;;
13580;SDS011;6861;46.170;7.222;2023-08-06T04:04:48;1.45;;;1.00;;
13580;SDS011;6861;46.170;7.222;2023-08-06T04:07:16;1.38;;;0.90;;
13580;SDS011;6861;46.170;7.222;2023-08-06T04:09:53;1.05;;;0.80;;
13580;SDS011;6861;46.170;7.222;2023-08-06T04:12:22;1.20;;;1.10;;
13580;SDS011;6861;46.170;7.222;2023-08-06T04:14:51;1.35;;;1.00;;
13580;SDS011;6861;46.170;7.222;2023-08-06T04:17:19;1.35;;;0.80;;
13580;SDS011;6861;46.170;7.222;2023-08-06T04:19:49;1.65;;;1.10;;
13580;SDS011;6861;46.170;7.222;2023-08-06T04:22:18;1.42;;;1.00;;
13580;SDS011;6861;46.170;7.222;2023-08-06T04:24:47;1.38;;;1.00;;
13580;SDS011;6861;46.170;7.222;2023-08-06T04:27:17;3.10;;;0.80;;
13580;SDS011;6861;46.170;7.222;2023-08-06T04:29:46;1.13;;;0.93;;
13580;SDS011;6861;46.170;7.222;2023-08-06T04:32:14;1.98;;;0.80;;
13580;SDS011;6861;46.170;7.222;2023-08-06T04:34:43;1.05;;;0.80;;
13580;SDS011;6861;46.170;7.222;2023-08-06T04:37:11;0.70;;;0.60;;
13580;SDS011;6861;46.170;7.222;2023-08-06T04:39:40;1.55;;;0.80;;
13580;SDS011;6861;46.170;7.222;2023-08-06T04:42:08;1.00;;;0.80;;
13580;SDS011;6861;46.170;7.222;2023-08-06T04:44:37;1.92;;;0.80;;
13580;SDS011;6861;46.170;7.222;2023-08-06T04:47:05;1.17;;;0.77;;
13580;SDS011;6861;46.170;7.222;2023-08-06T04:49:34;1.30;;;0.90;;
13580;SDS011;6861;46.170;7.222;2023-08-06T04:52:02;0.73;;;0.60;;
13580;SDS011;6861;46.170;7.222;2023-08-06T04:54:31;0.75;;;0.60;;
13580;SDS011;6861;46.170;7.222;2023-08-06T04:56:59;1.30;;;0.80;;
13580;SDS011;6861;46.170;7.222;2023-08-06T04:59:27;0.90;;;0.70;;
13580;SDS011;6861;46.170;7.222;2023-08-06T05:01:57;1.80;;;0.70;;
13580;SDS011;6861;46.170;7.222;2023-08-06T05:04:25;0.85;;;0.65;;
13580;SDS011;6861;46.170;7.222;2023-08-06T05:06:53;0.70;;;0.68;;
13580;SDS011;6861;46.170;7.222;2023-08-06T05:09:21;0.90;;;0.80;;
13580;SDS011;6861;46.170;7.222;2023-08-06T05:11:49;0.95;;;0.70;;
13580;SDS011;6861;46.170;7.222;2023-08-06T05:14:18;1.35;;;0.60;;
13580;SDS011;6861;46.170;7.222;2023-08-06T05:16:46;0.70;;;0.70;;
13580;SDS011;6861;46.170;7.222;2023-08-06T05:19:15;0.80;;;0.65;;
13580;SDS011;6861;46.170;7.222;2023-08-06T05:21:44;1.05;;;0.60;;
13580;SDS011;6861;46.170;7.222;2023-08-06T05:24:12;1.70;;;0.88;;
13580;SDS011;6861;46.170;7.222;2023-08-06T05:26:40;1.20;;;0.60;;
13580;SDS011;6861;46.170;7.222;2023-08-06T05:29:08;1.13;;;0.77;;
13580;SDS011;6861;46.170;7.222;2023-08-06T05:31:37;0.88;;;0.73;;
13580;SDS011;6861;46.170;7.222;2023-08-06T05:34:05;0.70;;;0.70;;
13580;SDS011;6861;46.170;7.222;2023-08-06T05:36:35;0.80;;;0.68;;
13580;SDS011;6861;46.170;7.222;2023-08-06T05:39:03;3.55;;;0.75;;
13580;SDS011;6861;46.170;7.222;2023-08-06T05:41:31;1.35;;;0.80;;
13580;SDS011;6861;46.170;7.222;2023-08-06T05:44:00;1.38;;;0.60;;
13580;SDS011;6861;46.170;7.222;2023-08-06T05:46:30;1.77;;;0.60;;
13580;SDS011;6861;46.170;7.222;2023-08-06T05:48:58;0.80;;;0.60;;
13580;SDS011;6861;46.170;7.222;2023-08-06T05:51:26;1.27;;;0.65;;
13580;SDS011;6861;46.170;7.222;2023-08-06T05:53:56;1.08;;;0.50;;
13580;SDS011;6861;46.170;7.222;2023-08-06T05:56:25;1.25;;;0.55;;
13580;SDS011;6861;46.170;7.222;2023-08-06T05:58:53;0.88;;;0.68;;
13580;SDS011;6861;46.170;7.222;2023-08-06T06:01:21;1.98;;;0.70;;
13580;SDS011;6861;46.170;7.222;2023-08-06T06:03:49;0.85;;;0.73;;
13580;SDS011;6861;46.170;7.222;2023-08-06T06:06:18;1.15;;;0.73;;
13580;SDS011;6861;46.170;7.222;2023-08-06T06:08:46;0.70;;;0.55;;
13580;SDS011;6861;46.170;7.222;2023-08-06T06:11:16;1.13;;;0.68;;
13580;SDS011;6861;46.170;7.222;2023-08-06T06:13:48;1.02;;;0.60;;
13580;SDS011;6861;46.170;7.222;2023-08-06T06:16:18;1.02;;;0.50;;
13580;SDS011;6861;46.170;7.222;2023-08-06T06:18:46;0.70;;;0.47;;
13580;SDS011;6861;46.170;7.222;2023-08-06T06:21:15;0.98;;;0.50;;
13580;SDS011;6861;46.170;7.222;2023-08-06T06:23:43;1.27;;;0.55;;
13580;SDS011;6861;46.170;7.222;2023-08-06T06:26:11;0.73;;;0.60;;
13580;SDS011;6861;46.170;7.222;2023-08-06T06:28:41;1.02;;;0.40;;
13580;SDS011;6861;46.170;7.222;2023-08-06T06:31:09;1.00;;;0.60;;
13580;SDS011;6861;46.170;7.222;2023-08-06T06:33:37;1.17;;;0.50;;
13580;SDS011;6861;46.170;7.222;2023-08-06T06:36:05;0.45;;;0.30;;
13580;SDS011;6861;46.170;7.222;2023-08-06T06:38:34;0.80;;;0.43;;
13580;SDS011;6861;46.170;7.222;2023-08-06T06:41:03;0.40;;;0.30;;
13580;SDS011;6861;46.170;7.222;2023-08-06T06:43:31;1.15;;;0.40;;
13580;SDS011;6861;46.170;7.222;2023-08-06T06:46:00;1.10;;;0.50;;
13580;SDS011;6861;46.170;7.222;2023-08-06T06:48:29;0.90;;;0.60;;
13580;SDS011;6861;46.170;7.222;2023-08-06T06:51:01;0.82;;;0.55;;
13580;SDS011;6861;46.170;7.222;2023-08-06T06:53:29;2.00;;;0.60;;
13580;SDS011;6861;46.170;7.222;2023-08-06T06:56:01;1.23;;;0.50;;
13580;SDS011;6861;46.170;7.222;2023-08-06T06:58:30;1.10;;;0.57;;
13580;SDS011;6861;46.170;7.222;2023-08-06T07:00:58;1.52;;;0.70;;
13580;SDS011;6861;46.170;7.222;2023-08-06T07:03:28;1.50;;;0.60;;
13580;SDS011;6861;46.170;7.222;2023-08-06T07:05:57;1.85;;;0.65;;
13580;SDS011;6861;46.170;7.222;2023-08-06T07:08:26;0.70;;;0.50;;
13580;SDS011;6861;46.170;7.222;2023-08-06T07:10:59;1.70;;;0.73;;
13580;SDS011;6861;46.170;7.222;2023-08-06T07:13:29;1.77;;;0.70;;
13580;SDS011;6861;46.170;7.222;2023-08-06T07:15:57;1.67;;;0.65;;
13580;SDS011;6861;46.170;7.222;2023-08-06T07:18:27;1.17;;;0.65;;
13580;SDS011;6861;46.170;7.222;2023-08-06T07:20:55;1.90;;;0.80;;
13580;SDS011;6861;46.170;7.222;2023-08-06T07:23:24;4.20;;;1.80;;
13580;SDS011;6861;46.170;7.222;2023-08-06T07:25:53;1.63;;;0.70;;
13580;SDS011;6861;46.170;7.222;2023-08-06T07:28:21;1.65;;;0.88;;
13580;SDS011;6861;46.170;7.222;2023-08-06T07:30:50;1.27;;;0.70;;
13580;SDS011;6861;46.170;7.222;2023-08-06T07:33:18;2.10;;;0.90;;
13580;SDS011;6861;46.170;7.222;2023-08-06T07:35:47;1.60;;;0.60;;
13580;SDS011;6861;46.170;7.222;2023-08-06T07:38:15;1.73;;;1.00;;
13580;SDS011;6861;46.170;7.222;2023-08-06T07:40:44;2.95;;;0.80;;
13580;SDS011;6861;46.170;7.222;2023-08-06T07:43:12;1.58;;;0.68;;
13580;SDS011;6861;46.170;7.222;2023-08-06T07:45:40;2.42;;;0.77;;
13580;SDS011;6861;46.170;7.222;2023-08-06T07:48:09;1.55;;;0.75;;
13580;SDS011;6861;46.170;7.222;2023-08-06T07:50:37;1.23;;;0.70;;
13580;SDS011;6861;46.170;7.222;2023-08-06T07:53:06;1.13;;;0.60;;
13580;SDS011;6861;46.170;7.222;2023-08-06T07:55:34;1.63;;;0.70;;
13580;SDS011;6861;46.170;7.222;2023-08-06T07:58:03;1.55;;;0.60;;
13580;SDS011;6861;46.170;7.222;2023-08-06T08:00:31;2.47;;;0.70;;
13580;SDS011;6861;46.170;7.222;2023-08-06T08:02:59;1.08;;;0.60;;
13580;SDS011;6861;46.170;7.222;2023-08-06T08:05:28;2.08;;;0.63;;
13580;SDS011;6861;46.170;7.222;2023-08-06T08:07:56;1.50;;;0.75;;
13580;SDS011;6861;46.170;7.222;2023-08-06T08:10:25;0.77;;;0.50;;
13580;SDS011;6861;46.170;7.222;2023-08-06T08:12:54;1.75;;;0.65;;
13580;SDS011;6861;46.170;7.222;2023-08-06T08:15:22;1.27;;;0.40;;
13580;SDS011;6861;46.170;7.222;2023-08-06T08:17:50;1.30;;;0.63;;
13580;SDS011;6861;46.170;7.222;2023-08-06T08:20:18;1.45;;;0.70;;
13580;SDS011;6861;46.170;7.222;2023-08-06T08:22:47;0.73;;;0.50;;
13580;SDS011;6861;46.170;7.222;2023-08-06T08:25:15;1.52;;;0.63;;
13580;SDS011;6861;46.170;7.222;2023-08-06T08:27:45;0.85;;;0.52;;
13580;SDS011;6861;46.170;7.222;2023-08-06T08:30:13;1.52;;;0.63;;
13580;SDS011;6861;46.170;7.222;2023-08-06T08:32:41;1.38;;;0.50;;
13580;SDS011;6861;46.170;7.222;2023-08-06T08:35:09;1.48;;;0.50;;
13580;SDS011;6861;46.170;7.222;2023-08-06T08:37:39;2.30;;;0.52;;
13580;SDS011;6861;46.170;7.222;2023-08-06T08:40:07;1.48;;;0.50;;
13580;SDS011;6861;46.170;7.222;2023-08-06T08:42:36;1.52;;;0.50;;
13580;SDS011;6861;46.170;7.222;2023-08-06T08:45:09;1.40;;;0.65;;
13580;SDS011;6861;46.170;7.222;2023-08-06T08:47:41;1.80;;;0.70;;
13580;SDS011;6861;46.170;7.222;2023-08-06T08:50:10;1.40;;;0.60;;
13580;SDS011;6861;46.170;7.222;2023-08-06T08:52:40;0.90;;;0.47;;
13580;SDS011;6861;46.170;7.222;2023-08-06T08:55:08;0.93;;;0.50;;
13580;SDS011;6861;46.170;7.222;2023-08-06T08:57:37;1.08;;;0.60;;
13580;SDS011;6861;46.170;7.222;2023-08-06T09:00:06;1.83;;;0.65;;
13580;SDS011;6861;46.170;7.222;2023-08-06T09:02:36;1.33;;;0.70;;
13580;SDS011;6861;46.170;7.222;2023-08-06T09:05:07;2.00;;;0.63;;
13580;SDS011;6861;46.170;7.222;2023-08-06T09:07:39;1.25;;;0.60;;
13580;SDS011;6861;46.170;7.222;2023-08-06T09:10:10;1.38;;;0.70;;
13580;SDS011;6861;46.170;7.222;2023-08-06T09:12:42;2.38;;;0.57;;
13580;SDS011;6861;46.170;7.222;2023-08-06T09:15:13;2.17;;;0.50;;
13580;SDS011;6861;46.170;7.222;2023-08-06T09:17:41;2.75;;;0.52;;
13580;SDS011;6861;46.170;7.222;2023-08-06T09:20:10;0.77;;;0.40;;
13580;SDS011;6861;46.170;7.222;2023-08-06T09:22:40;1.05;;;0.50;;
13580;SDS011;6861;46.170;7.222;2023-08-06T09:25:10;1.33;;;0.30;;
13580;SDS011;6861;46.170;7.222;2023-08-06T09:27:40;1.73;;;0.60;;
13580;SDS011;6861;46.170;7.222;2023-08-06T09:30:08;0.90;;;0.43;;
13580;SDS011;6861;46.170;7.222;2023-08-06T09:32:47;1.35;;;0.40;;
13580;SDS011;6861;46.170;7.222;2023-08-06T09:35:18;1.58;;;0.50;;
13580;SDS011;6861;46.170;7.222;2023-08-06T09:37:46;0.75;;;0.47;;
13580;SDS011;6861;46.170;7.222;2023-08-06T09:40:25;1.90;;;0.60;;
13580;SDS011;6861;46.170;7.222;2023-08-06T09:42:54;0.88;;;0.50;;
13580;SDS011;6861;46.170;7.222;2023-08-06T09:45:22;1.17;;;0.60;;
13580;SDS011;6861;46.170;7.222;2023-08-06T09:47:53;2.47;;;0.40;;
13580;SDS011;6861;46.170;7.222;2023-08-06T09:50:25;1.77;;;0.43;;
13580;SDS011;6861;46.170;7.222;2023-08-06T09:52:57;1.45;;;0.40;;
13580;SDS011;6861;46.170;7.222;2023-08-06T09:55:25;1.60;;;0.52;;
13580;SDS011;6861;46.170;7.222;2023-08-06T09:57:54;1.33;;;0.50;;
13580;SDS011;6861;46.170;7.222;2023-08-06T10:00:23;1.40;;;0.70;;
13580;SDS011;6861;46.170;7.222;2023-08-06T10:02:53;3.15;;;0.63;;
13580;SDS011;6861;46.170;7.222;2023-08-06T10:05:22;2.15;;;0.55;;
13580;SDS011;6861;46.170;7.222;2023-08-06T10:07:51;1.55;;;0.50;;
13580;SDS011;6861;46.170;7.222;2023-08-06T10:10:22;1.60;;;0.40;;
13580;SDS011;6861;46.170;7.222;2023-08-06T10:12:52;0.60;;;0.32;;
13580;SDS011;6861;46.170;7.222;2023-08-06T10:15:23;1.13;;;0.50;;
13580;SDS011;6861;46.170;7.222;2023-08-06T10:17:56;1.75;;;0.98;;
13580;SDS011;6861;46.170;7.222;2023-08-06T10:20:26;2.50;;;1.00;;
13580;SDS011;6861;46.170;7.222;2023-08-06T10:23:03;0.90;;;0.40;;
13580;SDS011;6861;46.170;7.222;2023-08-06T10:25:32;1.00;;;0.40;;
13580;SDS011;6861;46.170;7.222;2023-08-06T10:28:07;1.17;;;0.47;;
13580;SDS011;6861;46.170;7.222;2023-08-06T10:30:43;0.85;;;0.30;;
13580;SDS011;6861;46.170;7.222;2023-08-06T10:33:14;1.63;;;0.90;;
13580;SDS011;6861;46.170;7.222;2023-08-06T10:35:44;0.60;;;0.30;;
13580;SDS011;6861;46.170;7.222;2023-08-06T10:38:16;0.70;;;0.40;;
13580;SDS011;6861;46.170;7.222;2023-08-06T10:40:49;1.35;;;0.40;;
13580;SDS011;6861;46.170;7.222;2023-08-06T10:43:29;1.05;;;0.40;;
13580;SDS011;6861;46.170;7.222;2023-08-06T10:45:59;1.88;;;0.50;;
13580;SDS011;6861;46.170;7.222;2023-08-06T10:48:31;1.70;;;0.80;;
13580;SDS011;6861;46.170;7.222;2023-08-06T10:51:01;0.57;;;0.30;;
13580;SDS011;6861;46.170;7.222;2023-08-06T10:53:30;0.50;;;0.20;;
13580;SDS011;6861;46.170;7.222;2023-08-06T10:56:00;0.50;;;0.30;;
13580;SDS011;6861;46.170;7.222;2023-08-06T10:58:31;0.45;;;0.20;;
13580;SDS011;6861;46.170;7.222;2023-08-06T11:01:00;0.57;;;0.20;;
13580;SDS011;6861;46.170;7.222;2023-08-06T11:03:28;2.90;;;0.40;;
13580;SDS011;6861;46.170;7.222;2023-08-06T11:05:58;0.77;;;0.40;;
13580;SDS011;6861;46.170;7.222;2023-08-06T11:08:26;1.13;;;0.30;;
13580;SDS011;6861;46.170;7.222;2023-08-06T11:10:55;1.52;;;0.38;;
13580;SDS011;6861;46.170;7.222;2023-08-06T11:13:37;0.35;;;0.17;;
13580;SDS011;6861;46.170;7.222;2023-08-06T11:16:05;0.45;;;0.10;;
13580;SDS011;6861;46.170;7.222;2023-08-06T11:18:34;0.77;;;0.30;;
13580;SDS011;6861;46.170;7.222;2023-08-06T11:21:04;0.80;;;0.30;;
13580;SDS011;6861;46.170;7.222;2023-08-06T11:23:32;0.40;;;0.20;;
13580;SDS011;6861;46.170;7.222;2023-08-06T11:26:01;0.50;;;0.20;;
13580;SDS011;6861;46.170;7.222;2023-08-06T11:28:29;0.50;;;0.22;;
13580;SDS011;6861;46.170;7.222;2023-08-06T11:30:58;0.50;;;0.20;;
13580;SDS011;6861;46.170;7.222;2023-08-06T11:33:28;0.50;;;0.30;;
13580;SDS011;6861;46.170;7.222;2023-08-06T11:35:58;0.45;;;0.20;;
13580;SDS011;6861;46.170;7.222;2023-08-06T11:38:28;0.43;;;0.22;;
13580;SDS011;6861;46.170;7.222;2023-08-06T11:40:57;0.50;;;0.30;;
13580;SDS011;6861;46.170;7.222;2023-08-06T11:43:25;0.50;;;0.20;;
13580;SDS011;6861;46.170;7.222;2023-08-06T11:45:55;1.38;;;0.22;;
13580;SDS011;6861;46.170;7.222;2023-08-06T11:48:24;1.63;;;0.43;;
13580;SDS011;6861;46.170;7.222;2023-08-06T11:50:54;0.38;;;0.13;;
13580;SDS011;6861;46.170;7.222;2023-08-06T11:53:27;0.43;;;0.20;;
13580;SDS011;6861;46.170;7.222;2023-08-06T11:55:57;1.27;;;0.10;;
13580;SDS011;6861;46.170;7.222;2023-08-06T11:58:26;0.38;;;0.17;;
13580;SDS011;6861;46.170;7.222;2023-08-06T12:00:54;0.95;;;0.28;;
13580;SDS011;6861;46.170;7.222;2023-08-06T12:03:22;0.60;;;0.30;;
13580;SDS011;6861;46.170;7.222;2023-08-06T12:05:53;0.60;;;0.40;;
13580;SDS011;6861;46.170;7.222;2023-08-06T12:08:25;0.65;;;0.20;;
13580;SDS011;6861;46.170;7.222;2023-08-06T12:10:55;0.38;;;0.08;;
13580;SDS011;6861;46.170;7.222;2023-08-06T12:13:24;0.50;;;0.25;;
13580;SDS011;6861;46.170;7.222;2023-08-06T12:15:53;0.98;;;0.40;;
13580;SDS011;6861;46.170;7.222;2023-08-06T12:18:23;0.50;;;0.38;;
13580;SDS011;6861;46.170;7.222;2023-08-06T12:20:52;0.30;;;0.10;;
13580;SDS011;6861;46.170;7.222;2023-08-06T12:23:21;0.43;;;0.10;;
13580;SDS011;6861;46.170;7.222;2023-08-06T12:25:49;0.30;;;0.10;;
13580;SDS011;6861;46.170;7.222;2023-08-06T12:28:19;0.30;;;0.10;;
13580;SDS011;6861;46.170;7.222;2023-08-06T12:30:49;0.60;;;0.40;;
13580;SDS011;6861;46.170;7.222;2023-08-06T12:33:21;1.27;;;0.90;;
13580;SDS011;6861;46.170;7.222;2023-08-06T12:35:49;0.60;;;0.20;;
13580;SDS011;6861;46.170;7.222;2023-08-06T12:38:19;0.40;;;0.20;;
13580;SDS011;6861;46.170;7.222;2023-08-06T12:40:47;0.45;;;0.10;;
13580;SDS011;6861;46.170;7.222;2023-08-06T12:43:16;0.30;;;0.13;;
13580;SDS011;6861;46.170;7.222;2023-08-06T12:45:45;0.55;;;0.20;;
13580;SDS011;6861;46.170;7.222;2023-08-06T12:48:15;0.50;;;0.38;;
13580;SDS011;6861;46.170;7.222;2023-08-06T12:50:43;1.50;;;0.22;;
13580;SDS011;6861;46.170;7.222;2023-08-06T12:53:12;0.45;;;0.15;;
13580;SDS011;6861;46.170;7.222;2023-08-06T12:55:41;0.73;;;0.30;;
13580;SDS011;6861;46.170;7.222;2023-08-06T12:58:09;1.55;;;0.30;;
13580;SDS011;6861;46.170;7.222;2023-08-06T13:00:37;1.42;;;0.40;;
13580;SDS011;6861;46.170;7.222;2023-08-06T13:03:07;0.60;;;0.30;;
13580;SDS011;6861;46.170;7.222;2023-08-06T13:05:35;0.30;;;0.20;;
13580;SDS011;6861;46.170;7.222;2023-08-06T13:08:04;0.68;;;0.20;;
13580;SDS011;6861;46.170;7.222;2023-08-06T13:10:32;0.90;;;0.20;;
13580;SDS011;6861;46.170;7.222;2023-08-06T13:13:00;0.30;;;0.10;;
13580;SDS011;6861;46.170;7.222;2023-08-06T13:15:28;0.60;;;0.20;;
13580;SDS011;6861;46.170;7.222;2023-08-06T13:17:56;0.57;;;0.20;;
13580;SDS011;6861;46.170;7.222;2023-08-06T13:20:26;0.45;;;0.10;;
13580;SDS011;6861;46.170;7.222;2023-08-06T13:22:54;0.50;;;0.20;;
13580;SDS011;6861;46.170;7.222;2023-08-06T13:25:22;0.30;;;0.13;;
13580;SDS011;6861;46.170;7.222;2023-08-06T13:27:51;0.30;;;0.10;;
13580;SDS011;6861;46.170;7.222;2023-08-06T13:30:19;0.40;;;0.10;;
13580;SDS011;6861;46.170;7.222;2023-08-06T13:32:47;0.30;;;0.05;;
13580;SDS011;6861;46.170;7.222;2023-08-06T13:35:15;0.43;;;0.10;;
13580;SDS011;6861;46.170;7.222;2023-08-06T13:37:45;1.42;;;0.30;;
13580;SDS011;6861;46.170;7.222;2023-08-06T13:40:14;0.60;;;0.10;;
13580;SDS011;6861;46.170;7.222;2023-08-06T13:42:43;0.40;;;0.15;;
13580;SDS011;6861;46.170;7.222;2023-08-06T13:45:11;0.65;;;0.20;;
13580;SDS011;6861;46.170;7.222;2023-08-06T13:47:39;0.60;;;0.20;;
13580;SDS011;6861;46.170;7.222;2023-08-06T13:50:08;0.32;;;0.22;;
13580;SDS011;6861;46.170;7.222;2023-08-06T13:52:55;0.30;;;0.20;;
13580;SDS011;6861;46.170;7.222;2023-08-06T13:55:23;0.38;;;0.10;;
13580;SDS011;6861;46.170;7.222;2023-08-06T13:57:53;0.30;;;0.10;;
13580;SDS011;6861;46.170;7.222;2023-08-06T14:00:21;1.38;;;0.15;;
13580;SDS011;6861;46.170;7.222;2023-08-06T14:02:49;0.40;;;0.20;;
13580;SDS011;6861;46.170;7.222;2023-08-06T14:05:17;0.45;;;0.10;;
13580;SDS011;6861;46.170;7.222;2023-08-06T14:07:45;0.30;;;0.10;;
13580;SDS011;6861;46.170;7.222;2023-08-06T14:10:16;0.40;;;0.15;;
13580;SDS011;6861;46.170;7.222;2023-08-06T14:12:44;0.30;;;0.20;;
13580;SDS011;6861;46.170;7.222;2023-08-06T14:15:30;1.00;;;0.30;;
13580;SDS011;6861;46.170;7.222;2023-08-06T14:17:59;0.30;;;0.10;;
13580;SDS011;6861;46.170;7.222;2023-08-06T14:20:28;0.30;;;0.10;;
13580;SDS011;6861;46.170;7.222;2023-08-06T14:22:57;0.30;;;0.00;;
13580;SDS011;6861;46.170;7.222;2023-08-06T14:25:27;0.50;;;0.10;;
13580;SDS011;6861;46.170;7.222;2023-08-06T14:27:55;0.30;;;0.10;;
13580;SDS011;6861;46.170;7.222;2023-08-06T14:30:23;0.30;;;0.10;;
13580;SDS011;6861;46.170;7.222;2023-08-06T14:32:51;0.38;;;0.10;;
13580;SDS011;6861;46.170;7.222;2023-08-06T14:35:20;0.45;;;0.15;;
13580;SDS011;6861;46.170;7.222;2023-08-06T14:37:48;1.40;;;0.20;;
13580;SDS011;6861;46.170;7.222;2023-08-06T14:40:16;0.30;;;0.10;;
13580;SDS011;6861;46.170;7.222;2023-08-06T14:42:46;2.50;;;0.20;;
13580;SDS011;6861;46.170;7.222;2023-08-06T14:45:14;0.63;;;0.30;;
13580;SDS011;6861;46.170;7.222;2023-08-06T14:47:42;0.60;;;0.45;;
13580;SDS011;6861;46.170;7.222;2023-08-06T14:50:10;0.38;;;0.20;;
13580;SDS011;6861;46.170;7.222;2023-08-06T14:52:38;0.47;;;0.20;;
13580;SDS011;6861;46.170;7.222;2023-08-06T14:55:07;0.38;;;0.20;;
13580;SDS011;6861;46.170;7.222;2023-08-06T14:57:35;1.02;;;0.20;;
13580;SDS011;6861;46.170;7.222;2023-08-06T15:00:06;2.15;;;0.30;;
13580;SDS011;6861;46.170;7.222;2023-08-06T15:02:37;0.45;;;0.30;;
13580;SDS011;6861;46.170;7.222;2023-08-06T15:05:05;0.75;;;0.30;;
13580;SDS011;6861;46.170;7.222;2023-08-06T15:07:34;0.32;;;0.30;;
13580;SDS011;6861;46.170;7.222;2023-08-06T15:10:04;0.68;;;0.43;;
13580;SDS011;6861;46.170;7.222;2023-08-06T15:12:53;0.30;;;0.10;;